createdAt,value
2022-10-18T00:01:21.679Z,100422.41
2022-10-18T00:04:08.116Z,100426.08
2022-10-18T00:06:54.602Z,100429.40
2022-10-18T00:09:43.358Z,100434.91
2022-10-18T00:12:32.875Z,100439.41
2022-10-18T00:15:19.286Z,100439.85
2022-10-18T00:18:05.658Z,100436.89
2022-10-18T00:21:02.360Z,100440.06
2022-10-18T00:23:50.492Z,100438.27
2022-10-18T00:26:36.737Z,100440.54
2022-10-18T00:29:23.240Z,100436.65
2022-10-18T00:32:11.547Z,100437.48
2022-10-18T00:34:59.582Z,100442.21
2022-10-18T00:37:45.747Z,100444.31
2022-10-18T00:40:35.215Z,100446.67
2022-10-18T00:43:21.156Z,100441.95
2022-10-18T00:46:07.711Z,100430.27
2022-10-18T00:48:56.923Z,100432.55
2022-10-18T00:51:52.992Z,100429.46
2022-10-18T00:54:43.447Z,100428.15
2022-10-18T00:57:29.786Z,100437.88
2022-10-18T01:00:16.749Z,100443.39
2022-10-18T01:03:02.972Z,100432.91
2022-10-18T01:05:49.238Z,100428.88
2022-10-18T01:09:29.193Z,100435.17
2022-10-18T01:12:38.356Z,100429.71
2022-10-18T01:15:34.246Z,100430.38
2022-10-18T01:18:52.998Z,100418.59
2022-10-18T01:22:18.610Z,100422.92
2022-10-18T01:26:20.553Z,100431.99
2022-10-18T01:29:46.838Z,100440.84
2022-10-18T01:32:43.994Z,100449.80
2022-10-18T01:35:38.282Z,100452.38
2022-10-18T01:38:26.051Z,100455.42
2022-10-18T01:41:15.815Z,100445.16
2022-10-18T01:44:06.595Z,100447.69
2022-10-18T01:46:55.787Z,100448.66
2022-10-18T01:49:42.146Z,100440.45
2022-10-18T01:52:28.794Z,100431.29
2022-10-18T01:55:16.303Z,100427.42
2022-10-18T01:58:37.881Z,100427.92
2022-10-18T02:01:45.534Z,100423.08
2022-10-18T02:04:48.445Z,100435.72
2022-10-18T02:08:05.344Z,100441.27
2022-10-18T02:11:11.817Z,100438.64
2022-10-18T02:14:07.027Z,100448.97
2022-10-18T02:17:00.633Z,100438.66
2022-10-18T02:19:53.528Z,100442.93
2022-10-18T02:22:45.230Z,100440.59
2022-10-18T02:25:33.496Z,100437.73
2022-10-18T02:28:21.033Z,100437.84
2022-10-18T02:31:43.662Z,100445.83
2022-10-18T02:34:38.091Z,100449.48
2022-10-18T02:37:31.052Z,100455.51
2022-10-18T02:40:17.822Z,100460.54
2022-10-18T02:43:05.957Z,100465.43
2022-10-18T02:45:52.790Z,100468.11
2022-10-18T02:48:39.058Z,100467.81
2022-10-18T02:51:25.638Z,100458.54
2022-10-18T02:54:11.918Z,100450.23
2022-10-18T02:56:58.638Z,100454.16
2022-10-18T02:59:44.853Z,100449.39
2022-10-18T03:02:31.436Z,100447.52
2022-10-18T03:05:17.811Z,100463.55
2022-10-18T03:08:04.534Z,100475.96
2022-10-18T03:10:50.961Z,100474.98
2022-10-18T03:13:37.462Z,100468.52
2022-10-18T03:16:25.296Z,100462.77
2022-10-18T03:19:11.865Z,100462.19
2022-10-18T03:21:57.959Z,100463.59
2022-10-18T03:24:47.274Z,100461.21
2022-10-18T03:27:33.869Z,100465.75
2022-10-18T03:30:20.465Z,100473.09
2022-10-18T03:33:06.819Z,100483.92
2022-10-18T03:35:53.132Z,100491.52
2022-10-18T03:38:39.466Z,100489.64
2022-10-18T03:41:25.681Z,100495.61
2022-10-18T03:44:12.133Z,100485.96
2022-10-18T03:47:00.574Z,100490.02
2022-10-18T03:49:51.989Z,100490.49
2022-10-18T03:52:41.294Z,100487.32
2022-10-18T03:55:27.704Z,100495.83
2022-10-18T03:58:14.000Z,100492.96
2022-10-18T04:01:00.099Z,100505.05
2022-10-18T04:03:46.388Z,100513.33
2022-10-18T04:06:32.847Z,100510.59
2022-10-18T04:09:19.083Z,100508.23
2022-10-18T04:12:05.502Z,100508.10
2022-10-18T04:14:51.994Z,100500.46
2022-10-18T04:17:38.303Z,100495.46
2022-10-18T04:20:25.393Z,100492.77
2022-10-18T04:23:11.754Z,100492.02
2022-10-18T04:25:57.753Z,100495.70
2022-10-18T04:28:44.439Z,100503.45
2022-10-18T04:31:30.717Z,100499.09
2022-10-18T04:34:17.306Z,100506.11
2022-10-18T04:37:03.847Z,100507.23
2022-10-18T04:39:52.794Z,100517.30
2022-10-18T04:42:40.199Z,100525.90
2022-10-18T04:45:26.859Z,100527.11
2022-10-18T04:48:14.689Z,100517.58
2022-10-18T04:51:01.190Z,100517.11
2022-10-18T04:53:47.838Z,100518.59
2022-10-18T04:56:34.527Z,100520.64
2022-10-18T04:59:21.250Z,100522.36
2022-10-18T05:02:07.786Z,100518.63
2022-10-18T05:04:53.939Z,100522.63
2022-10-18T05:07:40.471Z,100522.13
2022-10-18T05:10:26.910Z,100524.52
2022-10-18T05:13:13.298Z,100524.29
2022-10-18T05:16:00.170Z,100522.80
2022-10-18T05:18:46.525Z,100522.29
2022-10-18T05:21:33.497Z,100526.89
2022-10-18T05:24:21.916Z,100540.73
2022-10-18T05:27:10.635Z,100546.07
2022-10-18T05:29:58.871Z,100552.07
2022-10-18T05:32:49.687Z,100542.73
2022-10-18T05:35:36.379Z,100538.25
2022-10-18T05:38:23.059Z,100535.98
2022-10-18T05:41:09.830Z,100534.90
2022-10-18T05:43:55.933Z,100535.34
2022-10-18T05:46:42.449Z,100532.91
2022-10-18T05:49:29.006Z,100539.37
2022-10-18T05:52:16.538Z,100545.13
2022-10-18T05:55:03.511Z,100547.80
2022-10-18T05:57:51.239Z,100557.69
2022-10-18T06:00:38.143Z,100564.20
2022-10-18T06:03:24.671Z,100564.02
2022-10-18T06:06:13.328Z,100561.64
2022-10-18T06:08:59.803Z,100559.29
2022-10-18T06:11:46.083Z,100555.14
2022-10-18T06:14:32.762Z,100557.20
2022-10-18T06:17:19.030Z,100552.43
2022-10-18T06:20:06.933Z,100543.77
2022-10-18T06:22:53.367Z,100545.46
2022-10-18T06:25:39.864Z,100546.75
2022-10-18T06:28:27.186Z,100552.36
2022-10-18T06:31:15.354Z,100555.99
2022-10-18T06:34:02.089Z,100555.33
2022-10-18T06:36:48.124Z,100556.89
2022-10-18T06:39:34.303Z,100561.90
2022-10-18T06:42:22.676Z,100564.70
2022-10-18T06:45:09.496Z,100567.05
2022-10-18T06:47:57.973Z,100560.12
2022-10-18T06:50:56.384Z,100566.95
2022-10-18T06:53:44.489Z,100571.11
2022-10-18T06:56:39.250Z,100578.02
2022-10-18T06:59:28.887Z,100589.42
2022-10-18T07:02:17.690Z,100586.28
2022-10-18T07:05:04.370Z,100586.15
2022-10-18T07:07:54.228Z,100582.92
2022-10-18T07:10:49.633Z,100583.48
2022-10-18T07:13:35.881Z,100579.64
2022-10-18T07:16:22.334Z,100579.91
2022-10-18T07:19:08.537Z,100580.34
2022-10-18T07:21:55.119Z,100583.41
2022-10-18T07:24:41.511Z,100584.39
2022-10-18T07:27:27.536Z,100589.27
2022-10-18T07:30:14.154Z,100586.17
2022-10-18T07:33:00.313Z,100586.87
2022-10-18T07:35:47.422Z,100589.77
2022-10-18T07:38:34.722Z,100600.94
2022-10-18T07:41:21.807Z,100604.22
2022-10-18T07:44:08.561Z,100601.17
2022-10-18T07:46:54.897Z,100603.70
2022-10-18T07:49:40.959Z,100601.12
2022-10-18T07:52:27.102Z,100605.22
2022-10-18T07:55:13.760Z,100605.09
2022-10-18T07:58:00.684Z,100605.27
2022-10-18T08:00:47.031Z,100607.30
2022-10-18T08:03:37.056Z,100599.44
2022-10-18T08:06:23.294Z,100599.55
2022-10-18T08:09:09.792Z,100597.23
2022-10-18T08:11:56.106Z,100594.65
2022-10-18T08:14:42.584Z,100600.42
2022-10-18T08:17:28.735Z,100596.59
2022-10-18T08:20:29.933Z,100595.75
2022-10-18T08:23:17.411Z,100586.81
2022-10-18T08:26:08.108Z,100581.65
2022-10-18T08:29:10.221Z,100572.02
2022-10-18T08:32:00.497Z,100573.23
2022-10-18T08:34:46.837Z,100575.84
2022-10-18T08:37:33.858Z,100571.73
2022-10-18T08:40:20.835Z,100577.39
2022-10-18T08:43:22.007Z,100572.20
2022-10-18T08:46:12.286Z,100573.22
2022-10-18T08:49:00.632Z,100571.08
2022-10-18T08:51:49.461Z,100563.60
2022-10-18T08:54:49.443Z,100561.64
2022-10-18T08:57:35.826Z,100563.29
2022-10-18T09:00:26.331Z,100564.46
2022-10-18T09:03:21.582Z,100571.69
2022-10-18T09:06:42.701Z,100570.94
2022-10-18T09:10:25.604Z,100564.62
2022-10-18T09:13:37.538Z,100570.36
2022-10-18T09:17:02.269Z,100568.88
2022-10-18T09:20:12.911Z,100562.75
2022-10-18T09:23:30.000Z,100561.20
2022-10-18T09:26:22.525Z,100557.39
2022-10-18T09:32:22.181Z,100555.30
2022-10-18T09:35:19.478Z,100553.34
2022-10-18T09:38:10.858Z,100553.02
2022-10-18T09:41:09.151Z,100555.01
2022-10-18T09:44:15.080Z,100552.61
2022-10-18T09:47:34.426Z,100556.73
2022-10-18T09:50:54.107Z,100560.05
2022-10-18T09:53:45.332Z,100546.88
2022-10-18T09:56:57.514Z,100543.95
2022-10-18T09:59:48.627Z,100551.02
2022-10-18T10:02:35.049Z,100541.27
2022-10-18T10:05:21.323Z,100531.92
2022-10-18T10:08:08.102Z,100521.91
2022-10-18T10:10:54.300Z,100517.91
2022-10-18T10:13:40.548Z,100514.32
2022-10-18T10:16:27.483Z,100525.42
2022-10-18T10:19:34.368Z,100515.67
2022-10-18T10:22:33.533Z,100502.32
2022-10-18T10:25:35.533Z,100497.59
2022-10-18T10:28:28.137Z,100500.98
2022-10-18T10:31:23.699Z,100499.08
2022-10-18T10:34:12.781Z,100498.66
2022-10-18T10:36:59.085Z,100506.27
2022-10-18T10:40:00.684Z,100511.33
2022-10-18T10:43:33.082Z,100507.58
2022-10-18T10:46:22.681Z,100508.92
2022-10-18T10:49:41.189Z,100513.45
2022-10-18T10:52:29.158Z,100516.88
2022-10-18T10:55:34.772Z,100517.59
2022-10-18T10:58:22.656Z,100516.89
2022-10-18T11:01:22.278Z,100513.11
2022-10-18T11:04:30.314Z,100514.17
2022-10-18T11:07:19.737Z,100519.30
2022-10-18T11:10:09.054Z,100518.45
2022-10-18T11:13:02.084Z,100513.15
2022-10-18T11:16:05.221Z,100507.61
2022-10-18T11:18:54.028Z,100509.25
2022-10-18T11:21:41.242Z,100511.36
2022-10-18T11:24:28.021Z,100507.29
2022-10-18T11:27:24.933Z,100491.25
2022-10-18T11:30:38.712Z,100490.79
2022-10-18T11:34:08.275Z,100486.23
2022-10-18T11:37:28.530Z,100490.48
2022-10-18T11:40:53.118Z,100496.48
2022-10-18T11:44:02.983Z,100497.17
2022-10-18T11:47:18.923Z,100499.64
2022-10-18T11:50:26.854Z,100501.19
2022-10-18T11:53:24.709Z,100503.86
2022-10-18T11:56:32.354Z,100501.95
2022-10-18T11:59:37.750Z,100495.90
2022-10-18T12:03:04.519Z,100490.73
2022-10-18T12:05:53.704Z,100486.08
2022-10-18T12:08:47.795Z,100478.98
2022-10-18T12:11:46.840Z,100475.61
2022-10-18T12:14:45.225Z,100464.66
2022-10-18T12:17:46.158Z,100456.56
2022-10-18T12:20:45.741Z,100456.02
2022-10-18T12:23:59.564Z,100456.97
2022-10-18T12:26:50.184Z,100452.41
2022-10-18T12:29:50.510Z,100446.97
2022-10-18T12:32:38.511Z,100441.70
2022-10-18T12:35:34.477Z,100440.91
2022-10-18T12:38:36.570Z,100437.77
2022-10-18T12:41:35.261Z,100432.73
2022-10-18T12:44:34.344Z,100435.36
2022-10-18T12:47:25.033Z,100433.95
2022-10-18T12:50:29.547Z,100434.48
2022-10-18T12:53:26.082Z,100438.52
2022-10-18T12:56:27.347Z,100439.10
2022-10-18T12:59:13.829Z,100433.49
2022-10-18T13:01:59.996Z,100435.92
2022-10-18T13:04:48.262Z,100425.50
2022-10-18T13:07:40.403Z,100423.48
2022-10-18T13:10:35.574Z,100423.92
2022-10-18T13:13:40.609Z,100422.88
2022-10-18T13:16:42.156Z,100421.77
2022-10-18T13:19:58.269Z,100422.45
2022-10-18T13:23:23.422Z,100417.38
2022-10-18T13:26:17.730Z,100412.27
2022-10-18T13:29:48.736Z,100406.63
2022-10-18T13:32:57.370Z,100402.42
2022-10-18T13:35:52.247Z,100405.21
2022-10-18T13:38:55.077Z,100403.83
2022-10-18T13:41:41.637Z,100406.94
2022-10-18T13:44:37.929Z,100409.27
2022-10-18T13:47:36.744Z,100404.90
2022-10-18T13:50:37.742Z,100404.72
2022-10-18T13:54:06.266Z,100416.25
2022-10-18T13:58:00.762Z,100409.53
2022-10-18T14:01:14.357Z,100405.16
2022-10-18T14:04:00.674Z,100403.48
2022-10-18T14:06:48.003Z,100403.10
2022-10-18T14:09:56.121Z,100397.94
2022-10-18T14:12:51.631Z,100397.38
2022-10-18T14:15:42.875Z,100386.96
2022-10-18T14:18:36.165Z,100388.08
2022-10-18T14:21:33.054Z,100378.33
2022-10-18T14:24:24.414Z,100377.79
2022-10-18T14:27:24.376Z,100365.50
2022-10-18T14:30:18.900Z,100364.10
2022-10-18T14:33:05.180Z,100360.08
2022-10-18T14:36:10.289Z,100360.72
2022-10-18T14:39:03.782Z,100359.54
2022-10-18T14:41:53.603Z,100360.81
2022-10-18T14:44:40.272Z,100361.07
2022-10-18T14:47:30.668Z,100361.64
2022-10-18T14:50:30.476Z,100363.44
2022-10-18T14:53:24.610Z,100360.69
2022-10-18T14:56:25.183Z,100354.96
2022-10-18T14:59:19.903Z,100351.18
2022-10-18T15:02:20.609Z,100343.45
2022-10-18T15:05:20.314Z,100331.79
2022-10-18T15:08:08.972Z,100332.02
2022-10-18T15:10:56.486Z,100328.01
2022-10-18T15:13:53.153Z,100317.27
2022-10-18T15:16:40.436Z,100316.92
2022-10-18T15:19:41.664Z,100316.06
2022-10-18T15:22:32.063Z,100308.20
2022-10-18T15:25:35.271Z,100308.02
2022-10-18T15:28:30.682Z,100302.16
2022-10-18T15:31:24.795Z,100301.08
2022-10-18T15:34:25.877Z,100292.91
2022-10-18T15:37:26.915Z,100289.14
2022-10-18T15:40:22.876Z,100290.22
2022-10-18T15:43:39.196Z,100294.30
2022-10-18T15:46:32.091Z,100291.46
2022-10-18T15:49:24.299Z,100291.95
2022-10-18T15:52:19.523Z,100292.39
2022-10-18T15:55:30.703Z,100290.50
2022-10-18T15:58:46.464Z,100295.67
2022-10-18T16:01:44.044Z,100295.92
2022-10-18T16:04:32.674Z,100297.63
2022-10-18T16:07:18.967Z,100303.36
2022-10-18T16:10:13.778Z,100301.86
2022-10-18T16:13:00.186Z,100305.89
2022-10-18T16:15:47.110Z,100306.66
2022-10-18T16:18:33.376Z,100308.00
2022-10-18T16:21:30.388Z,100313.13
2022-10-18T16:24:17.095Z,100322.83
2022-10-18T16:27:10.433Z,100321.59
2022-10-18T16:29:57.455Z,100327.48
2022-10-18T16:32:43.998Z,100327.78
2022-10-18T16:35:30.268Z,100328.52
2022-10-18T16:38:35.182Z,100320.64
2022-10-18T16:41:23.108Z,100320.64
2022-10-18T16:44:10.628Z,100326.98
2022-10-18T16:46:56.978Z,100331.09
2022-10-18T16:49:44.623Z,100334.39
2022-10-18T16:52:31.284Z,100336.17
2022-10-18T16:55:24.253Z,100336.11
2022-10-18T16:58:17.282Z,100339.45
2022-10-18T17:01:06.723Z,100342.33
2022-10-18T17:03:55.401Z,100341.58
2022-10-18T17:06:41.998Z,100347.35
2022-10-18T17:09:28.601Z,100348.39
2022-10-18T17:12:15.188Z,100347.39
2022-10-18T17:15:01.551Z,100342.06
2022-10-18T17:17:49.496Z,100343.83
2022-10-18T17:20:35.698Z,100349.38
2022-10-18T17:23:22.244Z,100350.52
2022-10-18T17:26:28.539Z,100352.10
2022-10-18T17:29:16.129Z,100346.50
2022-10-18T17:32:03.324Z,100345.41
2022-10-18T17:34:49.654Z,100352.02
2022-10-18T17:37:37.873Z,100355.58
2022-10-18T17:40:26.239Z,100356.52
2022-10-18T17:43:13.165Z,100353.74
2022-10-18T17:45:59.436Z,100351.95
2022-10-18T17:48:46.203Z,100350.92
2022-10-18T17:51:32.473Z,100352.09
2022-10-18T17:54:18.749Z,100347.81
2022-10-18T17:57:06.696Z,100350.66
2022-10-18T17:59:54.786Z,100344.02
2022-10-18T18:02:42.132Z,100344.96
2022-10-18T18:05:35.575Z,100340.04
2022-10-18T18:08:25.777Z,100340.03
2022-10-18T18:11:14.963Z,100342.87
2022-10-18T18:14:01.652Z,100343.48
2022-10-18T18:16:48.191Z,100338.52
2022-10-18T18:19:34.621Z,100335.14
2022-10-18T18:22:21.047Z,100335.32
2022-10-18T18:25:09.156Z,100329.60
2022-10-18T18:27:55.522Z,100324.75
2022-10-18T18:30:41.629Z,100324.02
2022-10-18T18:33:28.144Z,100322.04
2022-10-18T18:36:14.631Z,100317.30
2022-10-18T18:39:01.200Z,100310.98
2022-10-18T18:41:50.282Z,100316.10
2022-10-18T18:44:39.276Z,100314.17
2022-10-18T18:47:34.975Z,100314.95
2022-10-18T18:50:21.086Z,100309.48
2022-10-18T18:53:08.337Z,100309.73
2022-10-18T18:56:04.230Z,100303.22
2022-10-18T18:58:52.989Z,100300.41
2022-10-18T19:01:41.589Z,100289.81
2022-10-18T19:04:28.881Z,100292.72
2022-10-18T19:07:16.131Z,100294.98
2022-10-18T19:10:03.253Z,100296.05
2022-10-18T19:12:49.881Z,100294.63
2022-10-18T19:15:36.276Z,100288.63
2022-10-18T19:18:23.962Z,100291.27
2022-10-18T19:21:10.592Z,100288.48
2022-10-18T19:23:58.356Z,100291.95
2022-10-18T19:26:50.448Z,100286.65
2022-10-18T19:29:39.315Z,100290.59
2022-10-18T19:32:26.087Z,100286.60
2022-10-18T19:35:12.385Z,100286.77
2022-10-18T19:37:58.865Z,100287.83
2022-10-18T19:40:45.101Z,100289.42
2022-10-18T19:43:31.425Z,100285.73
2022-10-18T19:46:18.165Z,100281.64
2022-10-18T19:49:04.894Z,100285.73
2022-10-18T19:51:51.858Z,100287.99
2022-10-18T19:54:38.695Z,100286.20
2022-10-18T19:57:25.907Z,100286.80
2022-10-18T20:00:17.254Z,100280.14
2022-10-18T20:03:05.323Z,100284.00
2022-10-18T20:06:00.428Z,100282.36
2022-10-18T20:08:47.661Z,100279.97
2022-10-18T20:11:34.826Z,100273.81
2022-10-18T20:14:22.899Z,100271.83
2022-10-18T20:17:12.432Z,100275.02
2022-10-18T20:19:58.685Z,100264.70
2022-10-18T20:22:45.025Z,100264.25
2022-10-18T20:25:31.628Z,100264.88
2022-10-18T20:28:18.579Z,100260.91
2022-10-18T20:31:09.706Z,100251.83
2022-10-18T20:34:03.023Z,100254.02
2022-10-18T20:36:49.597Z,100252.71
2022-10-18T20:39:36.353Z,100257.93
2022-10-18T20:42:22.596Z,100254.73
2022-10-18T20:45:10.158Z,100255.52
2022-10-18T20:47:56.777Z,100252.10
2022-10-18T20:50:45.624Z,100250.58
2022-10-18T20:53:33.672Z,100250.61
2022-10-18T20:56:22.966Z,100249.57
2022-10-18T20:59:10.341Z,100246.39
2022-10-18T21:01:56.359Z,100250.07
2022-10-18T21:04:42.858Z,100250.11
2022-10-18T21:07:30.546Z,100250.38
2022-10-18T21:10:17.450Z,100249.90
2022-10-18T21:13:03.743Z,100242.41
2022-10-18T21:15:57.577Z,100241.64
2022-10-18T21:18:44.145Z,100238.20
2022-10-18T21:21:31.247Z,100235.97
2022-10-18T21:24:19.472Z,100227.20
2022-10-18T21:27:06.030Z,100226.49
2022-10-18T21:29:52.865Z,100227.11
2022-10-18T21:32:39.432Z,100228.17
2022-10-18T21:35:25.738Z,100220.80
2022-10-18T21:38:12.201Z,100213.15
2022-10-18T21:40:58.577Z,100203.53
2022-10-18T21:43:51.128Z,100202.33
2022-10-18T21:46:38.980Z,100199.96
2022-10-18T21:49:27.537Z,100193.59
2022-10-18T21:52:13.493Z,100187.07
2022-10-18T21:54:59.951Z,100187.02
2022-10-18T21:57:49.997Z,100181.57
2022-10-18T22:00:40.127Z,100179.89
2022-10-18T22:03:30.582Z,100180.02
2022-10-18T22:06:23.743Z,100179.77
2022-10-18T22:09:13.211Z,100179.19
2022-10-18T22:12:00.365Z,100191.13
2022-10-18T22:14:47.407Z,100192.11
2022-10-18T22:17:33.873Z,100187.30
2022-10-18T22:20:20.487Z,100185.54
2022-10-18T22:23:06.988Z,100180.73
2022-10-18T22:25:53.611Z,100182.69
2022-10-18T22:28:42.235Z,100179.11
2022-10-18T22:31:32.405Z,100182.48
2022-10-18T22:34:28.229Z,100186.02
2022-10-18T22:37:14.727Z,100180.23
2022-10-18T22:40:00.779Z,100180.04
2022-10-18T22:42:47.043Z,100178.18
2022-10-18T22:45:33.491Z,100183.05
2022-10-18T22:48:20.182Z,100182.96
2022-10-18T22:51:08.074Z,100176.52
2022-10-18T22:53:54.202Z,100176.92
2022-10-18T22:56:40.643Z,100175.68
2022-10-18T22:59:26.729Z,100177.20
2022-10-18T23:02:13.313Z,100182.53
2022-10-18T23:04:59.958Z,100182.63
2022-10-18T23:07:49.344Z,100182.02
2022-10-18T23:10:42.793Z,100181.90
2022-10-18T23:13:31.919Z,100178.77
2022-10-18T23:16:20.139Z,100177.39
2022-10-18T23:19:06.270Z,100177.44
2022-10-18T23:21:52.494Z,100183.65
2022-10-18T23:24:38.911Z,100179.40
2022-10-18T23:27:25.116Z,100181.58
2022-10-18T23:30:11.804Z,100183.11
2022-10-18T23:32:58.191Z,100170.73
2022-10-18T23:35:44.878Z,100162.27
2022-10-18T23:38:31.728Z,100164.27
2022-10-18T23:41:18.064Z,100166.92
2022-10-18T23:44:04.815Z,100172.52
2022-10-18T23:46:51.062Z,100170.77
2022-10-18T23:49:37.430Z,100163.67
2022-10-18T23:52:24.409Z,100165.45
2022-10-18T23:55:10.465Z,100171.92
2022-10-18T23:57:56.619Z,100177.36
